Oney Z — J8B4719 — position and weather

sailwx.info

Track history (hours):
 
Tides and Currents Weather Stations Pressure Air Temp Water Temp Dewpoint Dewpoint Depression Visibility Wind Speed Wind Dir Waves Ship Positions

Oney Z

Last reported at 2017-Jan-21 08:22 UTC. Time now 2017-Jan-21 08:48 UTC.
Position N 38°02' E 012°30'.

Length 79 m; draft 3 m.

Type: Cargo ship. MMSI: 376099000.

Date/timePositionNaut miles runAvg speedWind from/ knotsBaromVisibWave heightAir tempDewpointWater temp
2017-Jan-21 08:22N 38°02' E 012°30'0 0.0
2017-Jan-21 07:28N 38°02' E 012°30'0 0.0
2017-Jan-21 06:28N 38°02' E 012°30'0 0.0
2017-Jan-21 05:28N 38°02' E 012°30'0 0.0
2017-Jan-21 04:31N 38°02' E 012°30'0 0.0
2017-Jan-21 03:31N 38°02' E 012°30'0 0.0
2017-Jan-21 02:31N 38°02' E 012°30'0 0.0
2017-Jan-21 01:31N 38°02' E 012°30'0 0.0
2017-Jan-21 00:31N 38°02' E 012°30'0 0.0
2017-Jan-20 23:31N 38°02' E 012°30'130 7.2
2017-Jan-20 05:27N 38°19' E 015°14'7 7.4
2017-Jan-20 04:32N 38°21' E 015°23'8 8.0
2017-Jan-20 03:30N 38°23' E 015°33'8 8.5
2017-Jan-20 02:32N 38°25' E 015°43'8 8.5
2017-Jan-20 01:32N 38°27' E 015°54'  
2017-Jan-17 07:29N 38°27' E 015°52'5 5.6
2017-Jan-17 06:33N 38°27' E 015°45'6 6.0
2017-Jan-17 05:32N 38°26' E 015°38'6 6.4
2017-Jan-17 04:34N 38°24' E 015°30'9 4.4
2017-Jan-17 02:34N 38°27' E 015°41'2 1.8
2017-Jan-17 01:33N 38°27' E 015°43'7 6.8
2017-Jan-17 00:33N 38°25' E 015°35'4 1.8
2017-Jan-16 22:08N 38°26' E 015°40'3 4.2
2017-Jan-16 21:29N 38°27' E 015°43'4 3.8
2017-Jan-16 20:33N 38°26' E 015°39'7 6.1
2017-Jan-16 19:28N 38°25' E 015°31'7 3.7
2017-Jan-16 17:27N 38°27' E 015°40'4 3.6
2017-Jan-16 16:17N 38°28' E 015°45'3 4.2
2017-Jan-16 15:33N 38°29' E 015°49'6 4.5
2017-Jan-16 14:06N 38°33' E 015°43'1 1.7
2017-Jan-16 13:33N 38°33' E 015°42'2 0.5
2017-Jan-16 08:22N 38°31' E 015°41'6 7.4
2017-Jan-16 07:31N 38°25' E 015°43'1 1.4
2017-Jan-16 06:33N 38°23' E 015°44'1 1.0
2017-Jan-16 05:33N 38°25' E 015°44'1 0.9
2017-Jan-16 04:33N 38°25' E 015°43'3 2.7
2017-Jan-16 03:33N 38°25' E 015°47'1 1.0
2017-Jan-16 02:33N 38°25' E 015°45'1 1.1
2017-Jan-16 01:33N 38°25' E 015°44'1 1.1
2017-Jan-16 00:32N 38°25' E 015°45'1 0.7
2017-Jan-15 23:33N 38°25' E 015°46'1 0.9
2017-Jan-15 22:33N 38°25' E 015°45'1 1.1
2017-Jan-15 21:30N 38°25' E 015°44'3 2.8
2017-Jan-15 20:33N 38°27' E 015°46'0 0.3
2017-Jan-15 19:33N 38°26' E 015°46'2 1.5
2017-Jan-15 18:31N 38°26' E 015°44'1 1.0
2017-Jan-15 17:34N 38°25' E 015°43'4 4.0
2017-Jan-15 16:31N 38°28' E 015°47'2 1.7
2017-Jan-15 15:33N 38°27' E 015°46'2 1.5
2017-Jan-15 14:32N 38°26' E 015°45'1 1.2
2017-Jan-15 13:34N 38°25' E 015°43'2 2.1
2017-Jan-15 12:32N 38°26' E 015°46'1 1.0
2017-Jan-15 11:34N 38°26' E 015°44'1 1.0
2017-Jan-15 10:33N 38°25' E 015°43'2 2.4
2017-Jan-15 09:33N 38°26' E 015°46'1 1.1
2017-Jan-15 08:32N 38°26' E 015°45'1 0.9
2017-Jan-15 07:33N 38°25' E 015°45'7 7.3
2017-Jan-15 06:33N 38°18' E 015°44'9 8.8
2017-Jan-15 05:33N 38°11' E 015°37'8 7.7
2017-Jan-15 04:32N 38°03' E 015°35'  
Track history (hours):
 
Tides and Currents Weather Stations Pressure Air Temp Water Temp Dewpoint Dewpoint Depression Visibility Wind Speed Wind Dir Waves Ship Positions

Oney Z

Last reported at 2017-Jan-21 08:22 UTC. Time now 2017-Jan-21 08:48 UTC.
Position N 38°02' E 012°30'.

Length 79 m; draft 3 m.

Type: Cargo ship. MMSI: 376099000.

Date/timePositionNaut miles runAvg speedWind from/ knotsBaromVisibWave heightAir tempDewpointWater temp
2017-Jan-21 08:22N 38°02' E 012°30'0 0.0
2017-Jan-21 07:28N 38°02' E 012°30'0 0.0
2017-Jan-21 06:28N 38°02' E 012°30'0 0.0
2017-Jan-21 05:28N 38°02' E 012°30'0 0.0
2017-Jan-21 04:31N 38°02' E 012°30'0 0.0
2017-Jan-21 03:31N 38°02' E 012°30'0 0.0
2017-Jan-21 02:31N 38°02' E 012°30'0 0.0
2017-Jan-21 01:31N 38°02' E 012°30'0 0.0
2017-Jan-21 00:31N 38°02' E 012°30'0 0.0
2017-Jan-20 23:31N 38°02' E 012°30'130 7.2
2017-Jan-20 05:27N 38°19' E 015°14'7 7.4
2017-Jan-20 04:32N 38°21' E 015°23'8 8.0
2017-Jan-20 03:30N 38°23' E 015°33'8 8.5
2017-Jan-20 02:32N 38°25' E 015°43'8 8.5
2017-Jan-20 01:32N 38°27' E 015°54'  
2017-Jan-17 07:29N 38°27' E 015°52'5 5.6
2017-Jan-17 06:33N 38°27' E 015°45'6 6.0
2017-Jan-17 05:32N 38°26' E 015°38'6 6.4
2017-Jan-17 04:34N 38°24' E 015°30'9 4.4
2017-Jan-17 02:34N 38°27' E 015°41'2 1.8
2017-Jan-17 01:33N 38°27' E 015°43'7 6.8
2017-Jan-17 00:33N 38°25' E 015°35'4 1.8
2017-Jan-16 22:08N 38°26' E 015°40'3 4.2
2017-Jan-16 21:29N 38°27' E 015°43'4 3.8
2017-Jan-16 20:33N 38°26' E 015°39'7 6.1
2017-Jan-16 19:28N 38°25' E 015°31'7 3.7
2017-Jan-16 17:27N 38°27' E 015°40'4 3.6
2017-Jan-16 16:17N 38°28' E 015°45'3 4.2
2017-Jan-16 15:33N 38°29' E 015°49'6 4.5
2017-Jan-16 14:06N 38°33' E 015°43'1 1.7
2017-Jan-16 13:33N 38°33' E 015°42'2 0.5
2017-Jan-16 08:22N 38°31' E 015°41'6 7.4
2017-Jan-16 07:31N 38°25' E 015°43'1 1.4
2017-Jan-16 06:33N 38°23' E 015°44'1 1.0
2017-Jan-16 05:33N 38°25' E 015°44'1 0.9
2017-Jan-16 04:33N 38°25' E 015°43'3 2.7
2017-Jan-16 03:33N 38°25' E 015°47'1 1.0
2017-Jan-16 02:33N 38°25' E 015°45'1 1.1
2017-Jan-16 01:33N 38°25' E 015°44'1 1.1
2017-Jan-16 00:32N 38°25' E 015°45'1 0.7
2017-Jan-15 23:33N 38°25' E 015°46'1 0.9
2017-Jan-15 22:33N 38°25' E 015°45'1 1.1
2017-Jan-15 21:30N 38°25' E 015°44'3 2.8
2017-Jan-15 20:33N 38°27' E 015°46'0 0.3
2017-Jan-15 19:33N 38°26' E 015°46'2 1.5
2017-Jan-15 18:31N 38°26' E 015°44'1 1.0
2017-Jan-15 17:34N 38°25' E 015°43'4 4.0
2017-Jan-15 16:31N 38°28' E 015°47'2 1.7
2017-Jan-15 15:33N 38°27' E 015°46'2 1.5
2017-Jan-15 14:32N 38°26' E 015°45'1 1.2
2017-Jan-15 13:34N 38°25' E 015°43'2 2.1
2017-Jan-15 12:32N 38°26' E 015°46'1 1.0
2017-Jan-15 11:34N 38°26' E 015°44'1 1.0
2017-Jan-15 10:33N 38°25' E 015°43'2 2.4
2017-Jan-15 09:33N 38°26' E 015°46'1 1.1
2017-Jan-15 08:32N 38°26' E 015°45'1 0.9
2017-Jan-15 07:33N 38°25' E 015°45'7 7.3
2017-Jan-15 06:33N 38°18' E 015°44'9 8.8
2017-Jan-15 05:33N 38°11' E 015°37'8 7.7
2017-Jan-15 04:32N 38°03' E 015°35'  

Dump ship's entire track history